sensor_id;sensor_type;location;lat;lon;timestamp;pressure;altitude;pressure_sealevel;temperature;humidity
14790;BME280;7486;51.010;10.366;2023-09-19T00:00:14;97546.94;;;14.80;82.89
14790;BME280;7486;51.010;10.366;2023-09-19T00:02:59;97559.03;;;14.88;82.06
14790;BME280;7486;51.010;10.366;2023-09-19T00:05:45;97553.69;;;14.66;82.69
14790;BME280;7486;51.010;10.366;2023-09-19T00:08:31;97550.06;;;14.72;82.41
14790;BME280;7486;51.010;10.366;2023-09-19T00:11:16;97555.38;;;14.72;82.16
14790;BME280;7486;51.010;10.366;2023-09-19T00:14:02;97562.59;;;14.77;81.18
14790;BME280;7486;51.010;10.366;2023-09-19T00:16:47;97559.00;;;14.66;82.05
14790;BME280;7486;51.010;10.366;2023-09-19T00:19:32;97568.91;;;14.65;81.79
14790;BME280;7486;51.010;10.366;2023-09-19T00:22:18;97554.50;;;14.45;82.84
14790;BME280;7486;51.010;10.366;2023-09-19T00:25:03;97553.94;;;14.43;83.17
14790;BME280;7486;51.010;10.366;2023-09-19T00:27:49;97570.88;;;14.37;82.99
14790;BME280;7486;51.010;10.366;2023-09-19T00:30:34;97560.44;;;14.35;83.01
14790;BME280;7486;51.010;10.366;2023-09-19T00:33:20;97565.09;;;14.61;82.13
14790;BME280;7486;51.010;10.366;2023-09-19T00:36:06;97566.97;;;14.83;80.71
14790;BME280;7486;51.010;10.366;2023-09-19T00:38:51;97577.63;;;14.83;80.57
14790;BME280;7486;51.010;10.366;2023-09-19T00:41:36;97575.81;;;14.66;81.27
14790;BME280;7486;51.010;10.366;2023-09-19T00:44:22;97579.91;;;14.52;82.21
14790;BME280;7486;51.010;10.366;2023-09-19T00:47:08;97581.38;;;14.43;82.94
14790;BME280;7486;51.010;10.366;2023-09-19T00:49:54;97588.47;;;14.54;82.48
14790;BME280;7486;51.010;10.366;2023-09-19T00:52:39;97588.88;;;14.30;83.16
14790;BME280;7486;51.010;10.366;2023-09-19T00:55:25;97587.88;;;14.14;83.63
14790;BME280;7486;51.010;10.366;2023-09-19T00:58:11;97572.53;;;14.04;83.07
14790;BME280;7486;51.010;10.366;2023-09-19T01:00:57;97590.28;;;13.99;84.52
14790;BME280;7486;51.010;10.366;2023-09-19T01:03:44;97590.78;;;13.96;84.30
14790;BME280;7486;51.010;10.366;2023-09-19T01:06:31;97594.75;;;13.77;86.11
14790;BME280;7486;51.010;10.366;2023-09-19T01:09:16;97594.91;;;13.87;85.12
14790;BME280;7486;51.010;10.366;2023-09-19T01:12:02;97601.28;;;13.86;86.07
14790;BME280;7486;51.010;10.366;2023-09-19T01:14:54;97608.78;;;13.89;85.82
14790;BME280;7486;51.010;10.366;2023-09-19T01:17:44;97605.63;;;13.92;85.92
14790;BME280;7486;51.010;10.366;2023-09-19T01:26:05;97605.44;;;13.65;86.75
14790;BME280;7486;51.010;10.366;2023-09-19T01:28:59;97606.19;;;13.77;86.92
14790;BME280;7486;51.010;10.366;2023-09-19T01:31:46;97609.66;;;13.78;86.39
14790;BME280;7486;51.010;10.366;2023-09-19T01:37:30;97606.91;;;13.89;85.19
14790;BME280;7486;51.010;10.366;2023-09-19T01:40:16;97609.66;;;13.78;85.86
14790;BME280;7486;51.010;10.366;2023-09-19T01:46:13;97617.25;;;13.69;86.02
14790;BME280;7486;51.010;10.366;2023-09-19T01:51:51;97616.41;;;13.68;86.61
14790;BME280;7486;51.010;10.366;2023-09-19T01:54:40;97618.69;;;13.48;87.77
14790;BME280;7486;51.010;10.366;2023-09-19T01:57:27;97625.28;;;13.57;86.94
14790;BME280;7486;51.010;10.366;2023-09-19T02:00:13;97632.88;;;13.65;86.57
14790;BME280;7486;51.010;10.366;2023-09-19T02:02:59;97636.19;;;13.72;85.99
14790;BME280;7486;51.010;10.366;2023-09-19T02:05:51;97631.75;;;13.78;85.21
14790;BME280;7486;51.010;10.366;2023-09-19T02:08:38;97635.53;;;13.65;86.09
14790;BME280;7486;51.010;10.366;2023-09-19T02:11:23;97640.28;;;13.63;86.89
14790;BME280;7486;51.010;10.366;2023-09-19T02:14:09;97651.69;;;13.76;85.72
14790;BME280;7486;51.010;10.366;2023-09-19T02:16:54;97644.56;;;13.64;85.80
14790;BME280;7486;51.010;10.366;2023-09-19T02:19:40;97655.50;;;13.51;86.45
14790;BME280;7486;51.010;10.366;2023-09-19T02:22:25;97660.13;;;13.44;87.01
14790;BME280;7486;51.010;10.366;2023-09-19T02:25:11;97661.16;;;13.43;87.06
14790;BME280;7486;51.010;10.366;2023-09-19T02:27:56;97661.78;;;13.34;87.30
14790;BME280;7486;51.010;10.366;2023-09-19T02:30:42;97664.47;;;13.22;87.66
14790;BME280;7486;51.010;10.366;2023-09-19T02:33:28;97662.13;;;13.37;87.21
14790;BME280;7486;51.010;10.366;2023-09-19T02:36:14;97666.41;;;13.66;85.11
14790;BME280;7486;51.010;10.366;2023-09-19T02:38:59;97665.28;;;13.62;85.17
14790;BME280;7486;51.010;10.366;2023-09-19T02:41:45;97667.22;;;13.67;84.09
14790;BME280;7486;51.010;10.366;2023-09-19T02:44:30;97665.66;;;13.43;85.16
14790;BME280;7486;51.010;10.366;2023-09-19T02:47:15;97669.44;;;13.18;85.14
14790;BME280;7486;51.010;10.366;2023-09-19T02:50:00;97675.03;;;13.17;84.78
14790;BME280;7486;51.010;10.366;2023-09-19T02:52:47;97679.44;;;13.11;84.21
14790;BME280;7486;51.010;10.366;2023-09-19T02:55:33;97679.72;;;12.87;84.12
14790;BME280;7486;51.010;10.366;2023-09-19T02:58:18;97687.06;;;13.08;83.65
14790;BME280;7486;51.010;10.366;2023-09-19T03:01:08;97680.06;;;13.30;81.50
14790;BME280;7486;51.010;10.366;2023-09-19T03:03:54;97694.47;;;13.46;81.04
14790;BME280;7486;51.010;10.366;2023-09-19T03:06:39;97687.06;;;13.59;80.22
14790;BME280;7486;51.010;10.366;2023-09-19T03:09:25;97694.81;;;13.78;79.37
14790;BME280;7486;51.010;10.366;2023-09-19T03:12:10;97694.63;;;13.67;79.18
14790;BME280;7486;51.010;10.366;2023-09-19T03:14:56;97700.63;;;13.74;79.09
14790;BME280;7486;51.010;10.366;2023-09-19T03:17:45;97693.00;;;13.66;79.37
14790;BME280;7486;51.010;10.366;2023-09-19T03:20:35;97704.00;;;13.70;78.06
14790;BME280;7486;51.010;10.366;2023-09-19T03:23:20;97709.56;;;13.68;79.09
14790;BME280;7486;51.010;10.366;2023-09-19T03:26:06;97716.38;;;13.76;78.24
14790;BME280;7486;51.010;10.366;2023-09-19T03:28:51;97712.78;;;13.70;78.30
14790;BME280;7486;51.010;10.366;2023-09-19T03:31:37;97718.81;;;13.26;79.35
14790;BME280;7486;51.010;10.366;2023-09-19T03:34:25;97720.03;;;13.47;78.85
14790;BME280;7486;51.010;10.366;2023-09-19T03:37:10;97723.97;;;13.56;77.70
14790;BME280;7486;51.010;10.366;2023-09-19T03:39:56;97724.44;;;13.41;77.76
14790;BME280;7486;51.010;10.366;2023-09-19T03:42:41;97724.38;;;13.13;77.81
14790;BME280;7486;51.010;10.366;2023-09-19T03:45:30;97729.84;;;13.18;77.97
14790;BME280;7486;51.010;10.366;2023-09-19T03:48:16;97720.91;;;13.24;76.67
14790;BME280;7486;51.010;10.366;2023-09-19T03:51:01;97726.97;;;12.85;76.26
14790;BME280;7486;51.010;10.366;2023-09-19T03:53:47;97728.13;;;12.65;76.64
14790;BME280;7486;51.010;10.366;2023-09-19T03:56:32;97729.69;;;12.43;76.40
14790;BME280;7486;51.010;10.366;2023-09-19T03:59:18;97732.00;;;12.28;76.91
14790;BME280;7486;51.010;10.366;2023-09-19T04:02:03;97727.63;;;12.45;76.18
14790;BME280;7486;51.010;10.366;2023-09-19T04:04:51;97730.84;;;12.47;75.48
14790;BME280;7486;51.010;10.366;2023-09-19T04:07:37;97747.41;;;12.61;74.98
14790;BME280;7486;51.010;10.366;2023-09-19T04:10:22;97736.00;;;12.84;74.34
14790;BME280;7486;51.010;10.366;2023-09-19T04:13:08;97732.53;;;12.83;74.46
14790;BME280;7486;51.010;10.366;2023-09-19T04:15:53;97741.06;;;12.97;73.92
14790;BME280;7486;51.010;10.366;2023-09-19T04:18:38;97735.75;;;12.97;73.87
14790;BME280;7486;51.010;10.366;2023-09-19T04:21:24;97735.97;;;13.07;73.94
14790;BME280;7486;51.010;10.366;2023-09-19T04:24:09;97737.69;;;13.13;74.02
14790;BME280;7486;51.010;10.366;2023-09-19T04:26:54;97742.44;;;13.11;73.98
14790;BME280;7486;51.010;10.366;2023-09-19T04:29:40;97747.50;;;13.24;73.61
14790;BME280;7486;51.010;10.366;2023-09-19T04:32:28;97739.53;;;13.24;73.72
14790;BME280;7486;51.010;10.366;2023-09-19T04:35:14;97749.81;;;13.32;73.90
14790;BME280;7486;51.010;10.366;2023-09-19T04:37:58;97755.09;;;13.44;73.35
14790;BME280;7486;51.010;10.366;2023-09-19T04:40:44;97752.09;;;13.40;73.30
14790;BME280;7486;51.010;10.366;2023-09-19T04:43:30;97754.84;;;13.45;73.29
14790;BME280;7486;51.010;10.366;2023-09-19T04:46:15;97760.75;;;13.47;73.23
14790;BME280;7486;51.010;10.366;2023-09-19T04:49:00;97765.50;;;13.45;72.95
14790;BME280;7486;51.010;10.366;2023-09-19T04:51:46;97762.72;;;13.40;73.47
14790;BME280;7486;51.010;10.366;2023-09-19T04:54:32;97769.81;;;13.35;73.26
14790;BME280;7486;51.010;10.366;2023-09-19T04:57:17;97777.91;;;13.16;74.01
14790;BME280;7486;51.010;10.366;2023-09-19T05:00:03;97773.66;;;12.92;76.11
14790;BME280;7486;51.010;10.366;2023-09-19T05:02:51;97772.72;;;12.75;76.79
14790;BME280;7486;51.010;10.366;2023-09-19T05:05:37;97779.09;;;12.86;76.97
14790;BME280;7486;51.010;10.366;2023-09-19T05:08:22;97782.00;;;12.84;77.08
14790;BME280;7486;51.010;10.366;2023-09-19T05:11:07;97783.13;;;12.77;77.29
14790;BME280;7486;51.010;10.366;2023-09-19T05:13:53;97780.94;;;12.85;77.34
14790;BME280;7486;51.010;10.366;2023-09-19T05:16:38;97788.78;;;13.03;76.76
14790;BME280;7486;51.010;10.366;2023-09-19T05:19:24;97785.22;;;12.98;76.54
14790;BME280;7486;51.010;10.366;2023-09-19T05:22:09;97791.91;;;12.89;77.11
14790;BME280;7486;51.010;10.366;2023-09-19T05:24:55;97780.13;;;12.85;77.34
14790;BME280;7486;51.010;10.366;2023-09-19T05:27:40;97791.56;;;12.73;77.36
14790;BME280;7486;51.010;10.366;2023-09-19T05:30:26;97787.03;;;12.74;77.68
14790;BME280;7486;51.010;10.366;2023-09-19T05:33:11;97790.97;;;12.71;77.55
14790;BME280;7486;51.010;10.366;2023-09-19T05:35:57;97787.75;;;12.93;77.60
14790;BME280;7486;51.010;10.366;2023-09-19T05:38:43;97788.91;;;12.97;77.19
14790;BME280;7486;51.010;10.366;2023-09-19T05:41:29;97781.50;;;12.99;76.90
14790;BME280;7486;51.010;10.366;2023-09-19T05:44:14;97796.09;;;13.08;75.99
14790;BME280;7486;51.010;10.366;2023-09-19T05:46:59;97789.59;;;13.04;76.38
14790;BME280;7486;51.010;10.366;2023-09-19T05:49:45;97793.19;;;13.21;76.10
14790;BME280;7486;51.010;10.366;2023-09-19T05:52:31;97799.06;;;13.23;76.26
14790;BME280;7486;51.010;10.366;2023-09-19T05:55:16;97796.53;;;13.05;76.73
14790;BME280;7486;51.010;10.366;2023-09-19T05:58:02;97803.69;;;13.16;76.26
14790;BME280;7486;51.010;10.366;2023-09-19T06:00:47;97804.97;;;13.02;76.73
14790;BME280;7486;51.010;10.366;2023-09-19T06:03:33;97798.16;;;13.06;76.71
14790;BME280;7486;51.010;10.366;2023-09-19T06:06:18;97803.22;;;13.19;76.62
14790;BME280;7486;51.010;10.366;2023-09-19T06:09:04;97807.84;;;13.12;76.87
14790;BME280;7486;51.010;10.366;2023-09-19T06:11:49;97808.78;;;13.06;77.21
14790;BME280;7486;51.010;10.366;2023-09-19T06:14:34;97812.72;;;13.15;77.64
14790;BME280;7486;51.010;10.366;2023-09-19T06:17:20;97823.69;;;13.18;77.61
14790;BME280;7486;51.010;10.366;2023-09-19T06:20:05;97817.81;;;13.28;77.72
14790;BME280;7486;51.010;10.366;2023-09-19T06:22:51;97823.13;;;13.28;76.74
14790;BME280;7486;51.010;10.366;2023-09-19T06:25:37;97822.19;;;13.34;77.00
14790;BME280;7486;51.010;10.366;2023-09-19T06:28:22;97824.03;;;13.34;76.69
14790;BME280;7486;51.010;10.366;2023-09-19T06:31:08;97822.75;;;13.36;76.08
14790;BME280;7486;51.010;10.366;2023-09-19T06:33:53;97831.19;;;13.45;76.28
14790;BME280;7486;51.010;10.366;2023-09-19T06:36:38;97839.56;;;13.25;76.09
14790;BME280;7486;51.010;10.366;2023-09-19T06:39:23;97837.91;;;13.24;76.13
14790;BME280;7486;51.010;10.366;2023-09-19T06:42:08;97850.06;;;13.20;76.55
14790;BME280;7486;51.010;10.366;2023-09-19T06:44:54;97858.50;;;13.17;76.19
14790;BME280;7486;51.010;10.366;2023-09-19T06:47:39;97854.28;;;12.74;76.53
14790;BME280;7486;51.010;10.366;2023-09-19T06:50:25;97872.22;;;12.79;77.25
14790;BME280;7486;51.010;10.366;2023-09-19T06:53:10;97874.53;;;12.76;76.68
14790;BME280;7486;51.010;10.366;2023-09-19T06:55:56;97887.19;;;12.62;76.43
14790;BME280;7486;51.010;10.366;2023-09-19T06:58:41;97891.94;;;12.60;77.06
14790;BME280;7486;51.010;10.366;2023-09-19T07:01:27;97902.22;;;12.68;75.62
14790;BME280;7486;51.010;10.366;2023-09-19T07:04:13;97842.16;;;12.07;75.82
14790;BME280;7486;51.010;10.366;2023-09-19T07:06:58;97906.16;;;12.47;73.28
14790;BME280;7486;51.010;10.366;2023-09-19T07:09:44;97925.84;;;12.28;72.86
14790;BME280;7486;51.010;10.366;2023-09-19T07:12:29;97922.31;;;12.16;73.01
14790;BME280;7486;51.010;10.366;2023-09-19T07:15:14;97936.75;;;12.20;72.37
14790;BME280;7486;51.010;10.366;2023-09-19T07:18:00;97940.75;;;12.29;72.21
14790;BME280;7486;51.010;10.366;2023-09-19T07:20:45;97925.19;;;12.33;71.27
14790;BME280;7486;51.010;10.366;2023-09-19T07:23:31;97938.66;;;12.49;71.32
14790;BME280;7486;51.010;10.366;2023-09-19T07:26:16;97936.88;;;12.61;71.11
14790;BME280;7486;51.010;10.366;2023-09-19T07:29:02;97943.97;;;12.49;71.48
14790;BME280;7486;51.010;10.366;2023-09-19T07:31:47;97941.59;;;12.41;71.91
14790;BME280;7486;51.010;10.366;2023-09-19T07:34:32;97948.22;;;12.50;71.81
14790;BME280;7486;51.010;10.366;2023-09-19T07:37:18;97939.38;;;12.86;70.26
14790;BME280;7486;51.010;10.366;2023-09-19T07:40:03;97942.84;;;12.87;69.35
14790;BME280;7486;51.010;10.366;2023-09-19T07:42:49;97945.41;;;13.05;68.76
14790;BME280;7486;51.010;10.366;2023-09-19T07:45:34;97944.22;;;12.89;69.07
14790;BME280;7486;51.010;10.366;2023-09-19T07:48:20;97940.16;;;12.75;68.87
14790;BME280;7486;51.010;10.366;2023-09-19T07:51:05;97944.53;;;13.11;67.63
14790;BME280;7486;51.010;10.366;2023-09-19T07:53:51;97936.81;;;12.80;68.10
14790;BME280;7486;51.010;10.366;2023-09-19T07:56:36;97948.41;;;12.97;68.32
14790;BME280;7486;51.010;10.366;2023-09-19T07:59:21;97947.16;;;12.99;68.05
14790;BME280;7486;51.010;10.366;2023-09-19T08:02:09;97946.59;;;13.20;66.83
14790;BME280;7486;51.010;10.366;2023-09-19T08:04:54;97951.13;;;13.32;67.44
14790;BME280;7486;51.010;10.366;2023-09-19T08:07:40;97950.53;;;13.30;66.60
14790;BME280;7486;51.010;10.366;2023-09-19T08:10:26;97954.00;;;13.30;65.78
14790;BME280;7486;51.010;10.366;2023-09-19T08:13:11;97950.22;;;13.38;64.07
14790;BME280;7486;51.010;10.366;2023-09-19T08:15:57;97952.38;;;13.17;64.70
14790;BME280;7486;51.010;10.366;2023-09-19T08:18:48;97950.09;;;13.21;64.47
14790;BME280;7486;51.010;10.366;2023-09-19T08:21:33;97953.09;;;13.36;63.35
14790;BME280;7486;51.010;10.366;2023-09-19T08:24:19;97953.31;;;13.46;64.08
14790;BME280;7486;51.010;10.366;2023-09-19T08:27:04;97955.34;;;13.62;62.82
14790;BME280;7486;51.010;10.366;2023-09-19T08:29:50;97959.50;;;13.58;61.47
14790;BME280;7486;51.010;10.366;2023-09-19T08:32:35;97957.19;;;13.50;62.36
14790;BME280;7486;51.010;10.366;2023-09-19T08:35:20;97961.00;;;13.54;64.10
14790;BME280;7486;51.010;10.366;2023-09-19T08:38:06;97960.66;;;13.51;62.49
14790;BME280;7486;51.010;10.366;2023-09-19T08:40:51;97961.31;;;13.46;63.95
14790;BME280;7486;51.010;10.366;2023-09-19T08:43:36;97964.03;;;13.58;63.19
14790;BME280;7486;51.010;10.366;2023-09-19T08:46:22;97968.19;;;13.65;64.14
14790;BME280;7486;51.010;10.366;2023-09-19T08:55:06;97961.78;;;14.01;62.68
14790;BME280;7486;51.010;10.366;2023-09-19T08:57:52;97976.91;;;14.24;60.81
14790;BME280;7486;51.010;10.366;2023-09-19T09:00:44;97970.13;;;13.93;60.58
14790;BME280;7486;51.010;10.366;2023-09-19T09:03:32;97983.56;;;13.98;60.86
14790;BME280;7486;51.010;10.366;2023-09-19T09:06:17;97985.31;;;13.93;61.65
14790;BME280;7486;51.010;10.366;2023-09-19T09:09:04;97989.78;;;14.15;60.13
14790;BME280;7486;51.010;10.366;2023-09-19T09:11:49;97992.81;;;13.96;60.52
14790;BME280;7486;51.010;10.366;2023-09-19T09:14:34;97998.25;;;14.01;61.21
14790;BME280;7486;51.010;10.366;2023-09-19T09:17:19;97994.50;;;14.48;61.12
14790;BME280;7486;51.010;10.366;2023-09-19T09:20:05;97995.91;;;14.28;59.43
14790;BME280;7486;51.010;10.366;2023-09-19T09:22:51;97995.72;;;14.57;59.48
14790;BME280;7486;51.010;10.366;2023-09-19T09:25:58;97985.56;;;14.43;58.08
14790;BME280;7486;51.010;10.366;2023-09-19T09:28:45;97980.03;;;14.72;59.88
14790;BME280;7486;51.010;10.366;2023-09-19T09:31:31;97985.63;;;14.88;57.41
14790;BME280;7486;51.010;10.366;2023-09-19T09:34:17;97991.94;;;15.27;58.85
14790;BME280;7486;51.010;10.366;2023-09-19T09:37:02;97990.31;;;15.25;58.69
14790;BME280;7486;51.010;10.366;2023-09-19T09:39:58;97986.84;;;14.97;56.78
14790;BME280;7486;51.010;10.366;2023-09-19T09:42:43;97977.91;;;14.86;57.47
14790;BME280;7486;51.010;10.366;2023-09-19T09:45:28;97975.56;;;14.90;57.85
14790;BME280;7486;51.010;10.366;2023-09-19T09:48:15;97986.00;;;14.80;58.40
14790;BME280;7486;51.010;10.366;2023-09-19T09:51:00;97980.59;;;14.74;58.93
14790;BME280;7486;51.010;10.366;2023-09-19T09:53:46;97982.78;;;15.06;59.66
14790;BME280;7486;51.010;10.366;2023-09-19T09:56:31;97977.72;;;15.38;58.13
14790;BME280;7486;51.010;10.366;2023-09-19T09:59:16;97979.09;;;15.23;57.94
14790;BME280;7486;51.010;10.366;2023-09-19T10:02:02;97973.13;;;15.33;58.32
14790;BME280;7486;51.010;10.366;2023-09-19T10:04:47;97975.94;;;15.60;57.72
14790;BME280;7486;51.010;10.366;2023-09-19T10:07:33;97972.59;;;15.86;55.77
14790;BME280;7486;51.010;10.366;2023-09-19T10:13:16;97974.91;;;16.16;56.20
14790;BME280;7486;51.010;10.366;2023-09-19T10:16:01;97978.38;;;16.38;54.52
14790;BME280;7486;51.010;10.366;2023-09-19T10:18:51;97970.94;;;16.40;55.34
14790;BME280;7486;51.010;10.366;2023-09-19T10:21:38;97973.72;;;16.50;55.47
14790;BME280;7486;51.010;10.366;2023-09-19T10:24:24;97969.63;;;16.43;53.01
14790;BME280;7486;51.010;10.366;2023-09-19T10:27:11;97969.09;;;16.02;53.82
14790;BME280;7486;51.010;10.366;2023-09-19T10:29:57;97969.28;;;16.17;53.96
14790;BME280;7486;51.010;10.366;2023-09-19T10:32:43;97982.25;;;16.26;54.43
14790;BME280;7486;51.010;10.366;2023-09-19T10:35:30;97976.50;;;16.17;54.33
14790;BME280;7486;51.010;10.366;2023-09-19T10:38:17;97972.06;;;16.22;52.57
14790;BME280;7486;51.010;10.366;2023-09-19T10:41:04;97973.59;;;16.18;54.52
14790;BME280;7486;51.010;10.366;2023-09-19T10:43:50;97978.25;;;16.28;55.55
14790;BME280;7486;51.010;10.366;2023-09-19T10:46:36;97974.75;;;16.06;54.70
14790;BME280;7486;51.010;10.366;2023-09-19T10:49:22;97982.53;;;15.91;54.53
14790;BME280;7486;51.010;10.366;2023-09-19T10:52:07;97974.44;;;15.86;54.89
14790;BME280;7486;51.010;10.366;2023-09-19T10:54:53;97989.56;;;16.35;55.27
14790;BME280;7486;51.010;10.366;2023-09-19T10:57:40;97979.41;;;16.37;55.35
14790;BME280;7486;51.010;10.366;2023-09-19T11:00:29;97979.94;;;16.56;54.27
14790;BME280;7486;51.010;10.366;2023-09-19T11:40:09;97974.31;;;16.14;52.02
14790;BME280;7486;51.010;10.366;2023-09-19T11:42:54;97965.56;;;15.80;52.56
14790;BME280;7486;51.010;10.366;2023-09-19T11:48:26;97965.66;;;16.07;52.40
14790;BME280;7486;51.010;10.366;2023-09-19T11:51:12;97969.59;;;15.99;51.48
14790;BME280;7486;51.010;10.366;2023-09-19T11:53:57;97960.25;;;16.02;51.19
14790;BME280;7486;51.010;10.366;2023-09-19T11:56:42;97958.63;;;16.01;50.63
14790;BME280;7486;51.010;10.366;2023-09-19T11:59:29;97957.38;;;16.25;49.19
14790;BME280;7486;51.010;10.366;2023-09-19T12:02:17;97957.78;;;16.17;49.84
14790;BME280;7486;51.010;10.366;2023-09-19T12:05:12;97962.22;;;16.28;49.46
14790;BME280;7486;51.010;10.366;2023-09-19T12:07:57;97976.19;;;16.35;48.51
14790;BME280;7486;51.010;10.366;2023-09-19T12:10:50;97968.50;;;16.39;48.79
14790;BME280;7486;51.010;10.366;2023-09-19T12:13:35;97973.16;;;16.48;48.83
14790;BME280;7486;51.010;10.366;2023-09-19T12:16:21;97973.63;;;16.23;48.35
14790;BME280;7486;51.010;10.366;2023-09-19T12:19:20;97963.44;;;16.20;49.42
14790;BME280;7486;51.010;10.366;2023-09-19T12:22:05;97970.97;;;16.23;49.82
14790;BME280;7486;51.010;10.366;2023-09-19T12:24:51;97967.50;;;16.23;50.00
14790;BME280;7486;51.010;10.366;2023-09-19T12:30:28;97973.97;;;16.49;50.12
14790;BME280;7486;51.010;10.366;2023-09-19T12:33:19;97991.03;;;16.69;50.40
14790;BME280;7486;51.010;10.366;2023-09-19T12:36:21;97962.97;;;16.45;51.30
14790;BME280;7486;51.010;10.366;2023-09-19T12:39:06;97972.41;;;16.53;51.03
14790;BME280;7486;51.010;10.366;2023-09-19T12:41:52;97972.13;;;16.76;49.79
14790;BME280;7486;51.010;10.366;2023-09-19T12:44:38;97966.22;;;16.74;49.06
14790;BME280;7486;51.010;10.366;2023-09-19T12:47:25;97968.09;;;16.52;47.92
14790;BME280;7486;51.010;10.366;2023-09-19T12:50:15;97965.25;;;16.58;49.13
14790;BME280;7486;51.010;10.366;2023-09-19T12:53:00;97960.28;;;16.67;48.69
14790;BME280;7486;51.010;10.366;2023-09-19T12:55:45;97956.66;;;16.56;49.49
14790;BME280;7486;51.010;10.366;2023-09-19T12:58:31;97958.13;;;16.69;48.98
14790;BME280;7486;51.010;10.366;2023-09-19T13:01:17;97956.59;;;17.00;49.78
14790;BME280;7486;51.010;10.366;2023-09-19T13:06:57;97961.00;;;16.62;49.80
14790;BME280;7486;51.010;10.366;2023-09-19T13:10:01;97952.28;;;16.72;48.88
14790;BME280;7486;51.010;10.366;2023-09-19T13:12:47;97954.25;;;16.82;49.31
14790;BME280;7486;51.010;10.366;2023-09-19T13:15:32;97955.03;;;16.77;48.45
14790;BME280;7486;51.010;10.366;2023-09-19T13:18:43;97957.28;;;17.17;48.68
14790;BME280;7486;51.010;10.366;2023-09-19T13:21:30;97952.34;;;16.77;48.82
14790;BME280;7486;51.010;10.366;2023-09-19T13:24:22;97949.47;;;16.84;48.95
14790;BME280;7486;51.010;10.366;2023-09-19T13:27:08;97951.09;;;16.85;48.20
14790;BME280;7486;51.010;10.366;2023-09-19T13:29:53;97943.38;;;16.88;48.42
14790;BME280;7486;51.010;10.366;2023-09-19T13:32:39;97952.09;;;16.79;47.95
14790;BME280;7486;51.010;10.366;2023-09-19T13:35:24;97956.50;;;16.68;48.52
14790;BME280;7486;51.010;10.366;2023-09-19T13:38:10;97958.44;;;16.72;48.60
14790;BME280;7486;51.010;10.366;2023-09-19T13:40:55;97944.94;;;16.57;49.19
14790;BME280;7486;51.010;10.366;2023-09-19T13:43:41;97953.94;;;16.51;49.80
14790;BME280;7486;51.010;10.366;2023-09-19T13:46:26;97944.22;;;16.67;49.06
14790;BME280;7486;51.010;10.366;2023-09-19T13:49:12;97944.34;;;17.04;50.87
14790;BME280;7486;51.010;10.366;2023-09-19T13:51:57;97944.94;;;17.11;49.52
14790;BME280;7486;51.010;10.366;2023-09-19T13:54:42;97942.72;;;17.03;49.52
14790;BME280;7486;51.010;10.366;2023-09-19T13:57:28;97942.19;;;16.79;48.27
14790;BME280;7486;51.010;10.366;2023-09-19T14:00:13;97935.63;;;16.65;48.74
14790;BME280;7486;51.010;10.366;2023-09-19T14:02:58;97945.81;;;16.68;49.49
14790;BME280;7486;51.010;10.366;2023-09-19T14:05:44;97936.41;;;16.60;48.57
14790;BME280;7486;51.010;10.366;2023-09-19T14:08:29;97940.94;;;16.87;49.09
14790;BME280;7486;51.010;10.366;2023-09-19T14:11:14;97932.34;;;16.58;48.73
14790;BME280;7486;51.010;10.366;2023-09-19T14:13:59;97930.91;;;16.07;50.22
14790;BME280;7486;51.010;10.366;2023-09-19T14:16:45;97938.81;;;15.97;50.32
14790;BME280;7486;51.010;10.366;2023-09-19T14:19:30;97935.59;;;15.95;49.10
14790;BME280;7486;51.010;10.366;2023-09-19T14:22:16;97935.47;;;15.85;51.03
14790;BME280;7486;51.010;10.366;2023-09-19T14:25:02;97935.38;;;16.18;51.32
14790;BME280;7486;51.010;10.366;2023-09-19T14:27:47;97924.75;;;16.23;49.99
14790;BME280;7486;51.010;10.366;2023-09-19T14:30:33;97929.97;;;16.13;50.48
14790;BME280;7486;51.010;10.366;2023-09-19T14:33:18;97923.56;;;16.36;51.46
14790;BME280;7486;51.010;10.366;2023-09-19T14:36:07;97919.25;;;16.35;49.87
14790;BME280;7486;51.010;10.366;2023-09-19T14:38:53;97919.78;;;16.32;49.90
14790;BME280;7486;51.010;10.366;2023-09-19T14:41:39;97924.53;;;16.51;49.67
14790;BME280;7486;51.010;10.366;2023-09-19T14:44:24;97928.50;;;16.49;48.44
14790;BME280;7486;51.010;10.366;2023-09-19T14:47:10;97924.81;;;16.28;47.64
14790;BME280;7486;51.010;10.366;2023-09-19T14:49:58;97925.72;;;16.17;49.01
14790;BME280;7486;51.010;10.366;2023-09-19T14:52:43;97923.56;;;16.36;48.32
14790;BME280;7486;51.010;10.366;2023-09-19T14:55:28;97927.38;;;16.66;48.62
14790;BME280;7486;51.010;10.366;2023-09-19T14:58:14;97926.88;;;16.48;48.21
14790;BME280;7486;51.010;10.366;2023-09-19T15:01:06;97931.31;;;16.37;47.48
14790;BME280;7486;51.010;10.366;2023-09-19T15:03:52;97928.88;;;16.57;47.51
14790;BME280;7486;51.010;10.366;2023-09-19T15:06:37;97934.63;;;16.22;48.50
14790;BME280;7486;51.010;10.366;2023-09-19T15:09:23;97932.31;;;16.09;48.30
14790;BME280;7486;51.010;10.366;2023-09-19T15:12:09;97939.91;;;16.17;48.44
14790;BME280;7486;51.010;10.366;2023-09-19T15:14:54;97927.78;;;16.10;48.49
14790;BME280;7486;51.010;10.366;2023-09-19T15:17:39;97930.28;;;16.00;48.92
14790;BME280;7486;51.010;10.366;2023-09-19T15:20:25;97914.50;;;15.77;48.07
14790;BME280;7486;51.010;10.366;2023-09-19T15:23:10;97924.06;;;16.11;48.99
14790;BME280;7486;51.010;10.366;2023-09-19T15:25:56;97920.81;;;16.31;48.45
14790;BME280;7486;51.010;10.366;2023-09-19T15:28:42;97923.94;;;16.22;48.17
14790;BME280;7486;51.010;10.366;2023-09-19T15:31:27;97912.06;;;16.35;48.00
14790;BME280;7486;51.010;10.366;2023-09-19T15:34:13;97917.38;;;16.30;49.00
14790;BME280;7486;51.010;10.366;2023-09-19T15:36:58;97915.22;;;16.32;49.06
14790;BME280;7486;51.010;10.366;2023-09-19T15:39:43;97919.56;;;16.38;49.00
14790;BME280;7486;51.010;10.366;2023-09-19T15:42:29;97913.53;;;16.48;47.73
14790;BME280;7486;51.010;10.366;2023-09-19T15:45:14;97918.56;;;16.44;47.73
14790;BME280;7486;51.010;10.366;2023-09-19T15:47:59;97919.03;;;16.14;48.60